• Join FlightAware (Why Join?)
  • Login
  • US Flag 
01:47AM EST


 

Airport Tracker/Info


-or-


 

Live Flight TrackerFlight Track Log ✈ N45BB ✈ 05-Jun-2013 ✈ KDPA - M33

Flight Track Log - Related Links

Times and Time Zones

All times are in EDT time to prevent confusion due to time zone crossing. See the N45BB flight status page for this flight to view local times or setup timezone preferences in your user account.

Time Position Orientation Groundspeed Altitude Reporting Facility
EDT Latitude Longitude Course Direction KTS MPH feet Rate Location/Type
05:53PM 41.9167 -88.2500 270° West 122 140 1,800  Level Chicago TRACON
05:54PM 41.9167 -88.2833 270° West 132 152 2,900 660 Climbing Chicago TRACON
05:55PM 41.8667 -88.2667 166° South 161 185 3,200 180 Climbing Chicago TRACON
05:56PM 41.8556 -88.2717 199° South 141 162 3,200 -180 Level Chicago Center
05:57PM 41.8036 -88.2686 177° South 168 193 3,000  Descending Chicago Center
05:58PM 41.7564 -88.2453 160° South 178 205 3,200 540 Climbing Chicago Center
05:59PM 41.7161 -88.2247 159° South 168 193 4,200 780 Climbing Chicago Center
06:00PM 41.6800 -88.2031 156° South 151 174 4,900 420 Climbing Chicago Center
06:01PM 41.6328 -88.1761 157° South 151 174 5,100 120 Climbing Chicago Center
06:02PM 41.5944 -88.1336 140° Southeast 169 194 5,200 540 Climbing Chicago Center
06:03PM 41.5614 -88.0994 142° Southeast 159 183 6,300 900 Climbing Chicago Center
06:04PM 41.5322 -88.0656 139° Southeast 144 166 7,100 600 Climbing Chicago Center
06:05PM 41.4986 -88.0267 139° Southeast 155 178 7,600 600 Climbing Chicago Center
06:06PM 41.4614 -87.9864 141° Southeast 167 192 8,400 840 Climbing Chicago Center
06:07PM 41.4169 -87.9403 142° Southeast 166 191 9,400 840 Climbing Chicago Center
06:08PM 41.3792 -87.8978 140° Southeast 176 203 10,200 780 Climbing Chicago Center
06:09PM 41.3431 -87.8556 139° Southeast 173 199 11,100 780 Climbing Chicago Center
06:10PM 41.3064 -87.8150 140° Southeast 172 198 11,900 720 Climbing Chicago Center
06:11PM 41.2675 -87.7747 142° Southeast 175 201 12,700 720 Climbing Chicago Center
06:12PM 41.2208 -87.7639 170° South 173 199 13,500 840 Climbing Chicago Center
06:13PM 41.1656 -87.7558 174° South 169 194 14,500 720 Climbing Chicago Center
06:14PM 41.1186 -87.7492 174° South 169 194 15,000 240 Climbing Chicago Center
06:15PM 41.0642 -87.7403 173° South 191 220 15,000  Level Chicago Center
06:16PM 41.0103 -87.7281 170° South 196 226 15,000  Level Chicago Center
06:17PM 40.9583 -87.7153 169° South 193 222 15,000  Level Chicago Center
06:19PM 40.8956 -87.6978 168° South 193 222 15,000  Level Chicago Center
06:20PM 40.8428 -87.6847 169° South 193 222 15,000  Level Chicago Center
06:21PM 40.7900 -87.6708 169° South 195 224 15,000 -60 Level Chicago Center
06:22PM 40.7375 -87.6569 169° South 194 223 14,900  Descending Chicago Center
06:23PM 40.6872 -87.6422 167° South 189 217 15,000  Climbing Chicago Center
06:24PM 40.6236 -87.6225 167° South 196 226 14,900 -60 Descending Chicago Center
06:25PM 40.5708 -87.6114 171° South 195 224 14,900  Level Chicago Center
06:26PM 40.5169 -87.5983 170° South 197 227 14,900  Level Chicago Center
06:27PM 40.4647 -87.5856 169° South 194 223 15,000  Climbing Chicago Center
06:28PM 40.4131 -87.5725 169° South 191 220 15,000  Level Chicago Center
06:29PM 40.3511 -87.5561 169° South 190 219 15,000  Level Chicago Center
06:30PM 40.3003 -87.5447 170° South 187 215 15,000  Level Chicago Center
06:31PM 40.2506 -87.5244 163° South 187 215 15,000  Level Chicago Center
06:32PM 40.2000 -87.5083 166° South 188 216 15,000  Level Chicago Center
06:33PM 40.1483 -87.4950 169° South 189 217 15,000  Level Chicago Center
06:34PM 40.1036 -87.4819 167° South 187 215 15,000  Level Indianapolis Center
06:35PM 40.0542 -87.4647 165° South 185 213 15,000  Level Indianapolis Center
06:36PM 40.0053 -87.4444 162° South 184 212 15,000  Level Indianapolis Center
06:37PM 39.9558 -87.4231 162° South 186 214 15,000  Level Indianapolis Center
06:38PM 39.9089 -87.4025 161° South 183 211 15,000  Level Indianapolis Center
06:39PM 39.8506 -87.3822 165° South 181 208 15,000  Level Indianapolis Center
06:40PM 39.8025 -87.3619 162° South 182 209 15,000  Level Indianapolis Center
06:41PM 39.7525 -87.3428 164° South 185 213 15,000  Level Indianapolis Center
06:42PM 39.7039 -87.3250 164° South 183 211 15,000  Level Indianapolis Center
06:43PM 39.6547 -87.3033 161° South 185 213 15,000  Level Indianapolis Center
06:44PM 39.5969 -87.2811 163° South 183 211 15,000  Level Indianapolis Center
06:45PM 39.5483 -87.2628 164° South 183 211 15,000  Level Indianapolis Center
06:46PM 39.4997 -87.2444 164° South 183 211 15,000  Level Indianapolis Center
06:47PM 39.4492 -87.2311 168° South 184 212 15,000  Level Indianapolis Center
06:48PM 39.4008 -87.2139 165° South 183 211 15,000  Level Indianapolis Center
06:49PM 39.3400 -87.1886 162° South 190 219 15,000  Level Indianapolis Center
06:50PM 39.2914 -87.1717 165° South 185 213 15,000  Level Indianapolis Center
06:51PM 39.2408 -87.1553 166° South 187 215 15,000  Level Indianapolis Center
06:52PM 39.1906 -87.1411 168° South 186 214 15,000  Level Indianapolis Center
06:53PM 39.1406 -87.1278 168° South 184 212 15,000  Level Indianapolis Center
06:54PM 39.0828 -87.1133 169° South 185 213 15,000  Level Indianapolis Center
06:55PM 39.0314 -87.0978 167° South 186 214 15,000  Level Indianapolis Center
06:57PM 38.9797 -87.0792 164° South 190 219 15,000  Level Indianapolis Center
06:58PM 38.9294 -87.0619 165° South 187 215 15,000  Level Indianapolis Center
06:59PM 38.8781 -87.0436 164° South 191 220 15,000 -60 Level Indianapolis Center
07:00PM 38.8272 -87.0269 166° South 188 216 14,900 -60 Descending Indianapolis Center
07:01PM 38.7656 -87.0058 165° South 189 217 14,900  Level Indianapolis Center
07:02PM 38.7136 -86.9925 169° South 189 217 14,900  Level Indianapolis Center
07:03PM 38.6622 -86.9792 169° South 188 216 14,900  Level Indianapolis Center
07:04PM 38.6103 -86.9664 169° South 189 217 14,900  Level Indianapolis Center
07:05PM 38.5581 -86.9536 169° South 190 219 15,000  Climbing Indianapolis Center
07:06PM 38.5061 -86.9414 170° South 189 217 14,900 -60 Descending Indianapolis Center
07:07PM 38.4542 -86.9278 168° South 189 217 14,900  Level Indianapolis Center
07:08PM 38.4017 -86.9139 168° South 190 219 14,900  Level Indianapolis Center
07:09PM 38.3381 -86.9003 170° South 191 220 14,900  Level Indianapolis Center
07:10PM 38.2853 -86.8942 175° South 187 215 15,000  Climbing Indianapolis Center
07:11PM 38.2325 -86.8878 175° South 188 216 14,900  Descending Indianapolis Center
07:12PM 38.1797 -86.8806 174° South 189 217 15,000  Climbing Indianapolis Center
07:13PM 38.1272 -86.8672 169° South 190 219 15,000 -60 Level Indianapolis Center
07:14PM 38.0747 -86.8478 164° South 195 224 14,900 -60 Descending Indianapolis Center
07:15PM 38.0222 -86.8258 162° South 197 227 14,900  Level Indianapolis Center
07:16PM 37.9711 -86.8036 161° South 194 223 14,900  Level Indianapolis Center
07:17PM 37.9094 -86.7742 159° South 197 227 14,900  Level Indianapolis Center
07:18PM 37.8575 -86.7497 160° South 198 228 14,900  Level Indianapolis Center
07:19PM 37.8056 -86.7267 161° South 197 227 14,900  Level Indianapolis Center
07:20PM 37.7531 -86.7003 158° South 202 232 15,000  Climbing Indianapolis Center
07:21PM 37.7006 -86.6756 160° South 200 230 14,900 -60 Descending Indianapolis Center
07:22PM 37.6464 -86.6572 165° South 201 231 14,900 -120 Level Indianapolis Center
07:23PM 37.5919 -86.6400 166° South 201 231 14,700 -540 Descending Indianapolis Center
07:24PM 37.5278 -86.6283 172° South 218 251 13,800 -840 Descending Indianapolis Center
07:25PM 37.4644 -86.6161 171° South 226 260 13,100 -840 Descending Indianapolis Center
07:26PM 37.3917 -86.6058 174° South 222 255 12,100 -960 Descending Indianapolis Center
07:28PM 37.3275 -86.5939 172° South 230 265 11,200 -1,020 Descending Indianapolis Center
07:29PM 37.2642 -86.5836 173° South 229 264 10,100 -780 Descending Indianapolis Center
07:30PM 37.2031 -86.5761 174° South 220 253 9,600 -840 Descending Indianapolis Center
07:31PM 37.1411 -86.5667 173° South 222 255 8,400 -1,140 Descending Indianapolis Center
07:31PM 37.0903 -86.5575 172° South 221 254 7,500 -960 Descending Memphis Center
07:32PM 37.0250 -86.5372 166° South 221 254 6,700 -720 Descending Memphis Center
07:33PM 36.9706 -86.5269 171° South 221 254 6,100 -360 Descending Memphis Center
07:34PM 36.9181 -86.5114 167° South 210 242 6,000 -60 Descending Memphis Center
07:35PM 36.8656 -86.5008 171° South 192 221 6,000  Level Memphis Center
07:36PM 36.8156 -86.4981 177° South 187 215 6,100 -300 Climbing Memphis Center
07:37PM 36.7631 -86.4850 169° South 187 215 5,500 -840 Descending Memphis Center
07:38PM 36.7064 -86.4722 170° South 200 230 4,500 -900 Descending Memphis Center
07:39PM 36.6583 -86.4694 177° South 187 215 3,800 -1,020 Descending Memphis Center
07:40PM 36.6192 -86.4792 191° South 167 192 2,500 -840 Descending Memphis Center
07:41PM 36.5878 -86.4806 182° South 141 162 2,200 -180 Descending Memphis Center
07:42PM 36.5522 -86.4744 172° South 129 148 2,200 1,380 Level Memphis Center
07:43PM 36.5167 -86.4711 176° South 129 148 5,000 1,380 Climbing Memphis Center
07:44PM 36.4789 -86.4650 173° South 129 148 5,000  Level Memphis Center
07:45PM 36.4433 -86.4617 176° South 129 148 5,000  Level Memphis Center
07:46PM 36.4289 -86.4597 174° South 129 148 5,000  Level Memphis Center
07:48PM 36.4289 -86.4597 238° Southwest 129 148 5,000  Level Memphis Center
07:50PM 36.4289 -86.4597 238° Southwest 129 148 5,000  Level Memphis Center